Date,TemperatureHighF,TemperatureAvgF,TemperatureLowF,DewpointHighF,DewpointAvgF,DewpointLowF,HumidityHigh,HumidityAvg,HumidityLow,PressureMaxIn,PressureMinIn,WindSpeedMaxMPH,WindSpeedAvgMPH,GustSpeedMaxMPH,PrecipitationSumIn
2013-11-1,76,64,55,22,20,16,26,19,13,30.12,29.98,18,12,35,0.00
2013-11-2,78,61,47,26,22,19,40,24,11,30.02,29.83,11,5,22,0.00
2013-11-3,72,60,44,47,38,29,92,50,22,29.87,29.73,12,6,20,0.00
2013-11-4,68,53,43,46,38,26,95,62,21,29.90,29.74,6,3,18,0.00
2013-11-5,63,56,49,27,8,-4,42,17,8,30.16,29.92,21,12,37,0.00
2013-11-6,70,57,48,7,3,0,16,11,7,30.24,30.15,23,15,34,0.00
2013-11-7,73,61,48,15,11,2,25,14,11,30.17,30.01,15,10,25,0.00
2013-11-8,81,55,43,15,13,10,27,20,7,30.03,29.89,11,7,17,0.00
2013-11-9,78,61,42,23,19,12,47,21,8,30.05,29.96,10,5,16,0.00
2013-11-10,75,58,42,18,14,11,35,19,9,30.12,30.03,12,5,20,0.00
2013-11-11,75,64,48,21,17,11,25,17,12,30.14,30.04,16,8,47,0.00
2013-11-12,74,64,55,19,17,14,24,16,10,30.20,30.12,14,7,21,0.00
2013-11-13,77,66,52,24,16,12,23,15,9,30.14,29.98,17,9,27,0.00
2013-11-14,82,66,53,23,20,16,29,19,9,30.02,29.73,14,6,37,0.00
2013-11-15,67,58,50,50,38,22,92,52,24,29.73,29.60,10,5,19,0.00
2013-11-16,61,53,45,48,43,40,96,70,47,29.85,29.67,15,7,26,0.00
2013-11-17,65,50,38,43,40,36,94,71,36,30.02,29.85,11,5,20,0.00
2013-11-18,68,51,38,48,40,33,90,70,34,30.09,29.96,10,5,17,0.00
2013-11-19,63,52,44,46,44,40,98,78,44,30.00,29.86,7,4,15,0.00
2013-11-20,66,54,45,51,47,42,96,78,49,29.91,29.80,11,4,20,0.00
2013-11-21,61,51,43,51,47,39,99,87,55,29.86,29.73,10,4,20,0.27
2013-11-22,43,41,39,41,37,35,91,86,80,29.99,29.85,17,13,35,0.21
2013-11-23,49,44,40,40,37,35,88,76,62,30.04,29.93,15,10,29,0.07
2013-11-24,55,47,41,41,37,34,84,70,47,30.14,30.03,14,8,28,0.00
2013-11-25,62,51,40,39,35,32,81,56,39,30.20,30.13,18,9,35,0.00
2013-11-26,61,54,47,39,35,32,64,50,38,30.19,30.05,20,12,30,0.00
2013-11-27,59,53,46,39,36,34,73,54,40,30.06,29.86,14,8,33,0.00
2013-11-28,58,50,41,37,34,30,73,56,40,30.01,29.86,15,7,24,0.00
2013-11-29,52,49,43,44,38,34,82,67,54,30.14,30.01,13,7,22,0.08
2013-11-30,64,54,45,40,36,32,70,51,33,30.18,30.09,15,9,26,0.01